createdAt,value
2019-04-03T00:01:09.669Z,13.67
2019-04-03T00:03:36.510Z,13.44
2019-04-03T00:06:05.123Z,13.44
2019-04-03T00:08:30.003Z,13.43
2019-04-03T00:10:56.795Z,13.19
2019-04-03T00:13:23.613Z,13.80
2019-04-03T00:15:50.250Z,13.62
2019-04-03T00:18:17.032Z,13.47
2019-04-03T00:20:43.767Z,13.48
2019-04-03T00:23:10.494Z,13.30
2019-04-03T00:25:37.261Z,13.34
2019-04-03T00:28:04.060Z,13.24
2019-04-03T00:30:30.818Z,13.36
2019-04-03T00:32:57.615Z,13.31
2019-04-03T00:35:24.343Z,13.14
2019-04-03T00:37:52.989Z,13.18
2019-04-03T00:40:17.846Z,13.17
2019-04-03T00:42:44.588Z,13.27
2019-04-03T00:45:11.352Z,13.09
2019-04-03T00:47:38.086Z,13.11
2019-04-03T00:50:04.933Z,12.81
2019-04-03T00:52:31.690Z,12.72
2019-04-03T00:54:58.595Z,12.84
2019-04-03T00:57:26.332Z,12.99
2019-04-03T00:59:51.928Z,13.10
2019-04-03T01:02:18.662Z,13.00
2019-04-03T01:04:45.409Z,12.99
2019-04-03T01:07:12.128Z,13.13
2019-04-03T01:09:38.882Z,12.98
2019-04-03T01:12:05.610Z,13.05
2019-04-03T01:14:32.360Z,13.04
2019-04-03T01:16:59.334Z,12.96
2019-04-03T01:19:26.093Z,13.00
2019-04-03T01:21:52.820Z,13.04
2019-04-03T01:24:19.725Z,12.83
2019-04-03T01:26:46.341Z,12.62
2019-04-03T01:29:13.115Z,12.54
2019-04-03T01:31:39.854Z,12.42
2019-04-03T01:34:06.577Z,12.76
2019-04-03T01:36:33.326Z,12.33
2019-04-03T01:39:00.062Z,12.17
2019-04-03T01:41:26.929Z,12.10
2019-04-03T01:43:54.261Z,12.10
2019-04-03T01:46:20.292Z,12.12
2019-04-03T01:48:47.015Z,12.12
2019-04-03T01:51:13.754Z,12.11
2019-04-03T01:53:40.510Z,12.10
2019-04-03T01:56:07.243Z,12.21
2019-04-03T01:58:35.983Z,12.21
2019-04-03T02:01:00.718Z,12.06
2019-04-03T02:03:27.457Z,11.99
2019-04-03T02:05:54.239Z,12.25
2019-04-03T02:08:20.970Z,12.03
2019-04-03T02:10:48.922Z,12.43
2019-04-03T02:13:14.461Z,12.09
2019-04-03T02:15:41.198Z,11.93
2019-04-03T02:18:07.927Z,11.84
2019-04-03T02:20:34.667Z,11.80
2019-04-03T02:23:01.394Z,11.92
2019-04-03T02:25:28.154Z,11.82
2019-04-03T02:27:54.937Z,11.88
2019-04-03T02:30:21.699Z,12.17
2019-04-03T02:32:48.501Z,12.10
2019-04-03T02:35:15.175Z,11.97
2019-04-03T02:37:41.916Z,11.87
2019-04-03T02:40:08.695Z,11.88
2019-04-03T02:42:35.422Z,11.65
2019-04-03T02:45:02.346Z,11.86
2019-04-03T02:47:32.439Z,11.71
2019-04-03T02:49:55.826Z,11.67
2019-04-03T02:52:25.349Z,11.90
2019-04-03T02:54:49.280Z,11.88
2019-04-03T02:57:17.476Z,11.98
2019-04-03T02:59:42.712Z,11.77
2019-04-03T03:02:11.830Z,11.63
2019-04-03T03:04:36.267Z,12.07
2019-04-03T03:07:04.828Z,11.74
2019-04-03T03:09:30.239Z,11.89
2019-04-03T03:11:57.257Z,12.06
2019-04-03T03:14:24.019Z,11.75
2019-04-03T03:16:51.115Z,11.81
2019-04-03T03:19:17.294Z,11.62
2019-04-03T03:21:45.372Z,11.96
2019-04-03T03:24:10.742Z,11.95
2019-04-03T03:26:37.848Z,12.04
2019-04-03T03:29:16.515Z,11.79
2019-04-03T03:31:59.845Z,11.81
2019-04-03T03:34:03.034Z,11.54
2019-04-03T03:36:26.459Z,11.81
2019-04-03T03:38:51.627Z,11.91
2019-04-03T03:41:22.065Z,11.89
2019-04-03T03:43:45.336Z,11.93
2019-04-03T03:46:12.265Z,11.70
2019-04-03T03:48:42.478Z,11.75
2019-04-03T03:51:05.754Z,11.70
2019-04-03T03:53:32.675Z,11.58
2019-04-03T03:56:00.144Z,11.70
2019-04-03T03:58:26.888Z,11.75
2019-04-03T04:00:57.968Z,11.60
2019-04-03T04:03:20.379Z,11.85
2019-04-03T04:05:47.162Z,11.54
2019-04-03T04:08:14.042Z,11.67
2019-04-03T04:10:41.046Z,12.24
2019-04-03T04:13:07.584Z,11.90
2019-04-03T04:15:34.391Z,11.76
2019-04-03T04:18:01.373Z,11.79
2019-04-03T04:20:28.039Z,11.79
2019-04-03T04:22:55.113Z,11.65
2019-04-03T04:25:21.591Z,11.67
2019-04-03T04:27:48.341Z,11.98
2019-04-03T04:30:17.386Z,11.60
2019-04-03T04:32:45.708Z,11.74
2019-04-03T04:35:11.264Z,11.84
2019-04-03T04:37:40.064Z,12.38
2019-04-03T04:40:04.174Z,12.40
2019-04-03T04:42:31.334Z,11.77
2019-04-03T04:44:57.859Z,12.37
2019-04-03T04:47:24.658Z,11.88
2019-04-03T04:49:53.098Z,11.60
2019-04-03T04:52:18.109Z,11.52
2019-04-03T04:54:44.727Z,11.62
2019-04-03T04:57:11.475Z,11.55
2019-04-03T04:59:38.198Z,11.44
2019-04-03T05:02:04.950Z,11.54
2019-04-03T05:04:31.697Z,12.16
2019-04-03T05:07:00.154Z,11.50
2019-04-03T05:09:25.158Z,11.56
2019-04-03T05:11:51.899Z,11.58
2019-04-03T05:14:18.762Z,11.63
2019-04-03T05:16:45.602Z,11.53
2019-04-03T05:19:17.937Z,11.30
2019-04-03T05:21:38.873Z,11.33
2019-04-03T05:24:13.169Z,11.29
2019-04-03T05:26:32.823Z,11.42
2019-04-03T05:28:59.093Z,11.28
2019-04-03T05:31:25.842Z,11.83
2019-04-03T05:33:52.561Z,12.06
2019-04-03T05:36:19.302Z,11.61
2019-04-03T05:38:46.030Z,12.13
2019-04-03T05:41:12.822Z,12.26
2019-04-03T05:43:39.545Z,12.42
2019-04-03T05:46:06.386Z,11.96
2019-04-03T05:48:33.010Z,11.95
2019-04-03T05:50:59.742Z,11.84
2019-04-03T05:53:26.492Z,11.78
2019-04-03T05:55:53.219Z,12.51
2019-04-03T05:58:19.964Z,11.88
2019-04-03T06:00:46.911Z,12.62
2019-04-03T06:03:13.561Z,12.23
2019-04-03T06:05:40.134Z,12.21
2019-04-03T06:08:06.982Z,12.13
2019-04-03T06:10:36.623Z,11.98
2019-04-03T06:13:00.590Z,11.76
2019-04-03T06:15:27.341Z,11.82
2019-04-03T06:17:55.166Z,11.89
2019-04-03T06:20:20.818Z,11.80
2019-04-03T06:22:49.255Z,11.85
2019-04-03T06:25:14.528Z,11.94
2019-04-03T06:27:43.020Z,11.94
2019-04-03T06:30:07.734Z,11.78
2019-04-03T06:32:34.478Z,11.81
2019-04-03T06:35:01.213Z,11.92
2019-04-03T06:37:27.966Z,11.88
2019-04-03T06:39:54.687Z,11.73
2019-04-03T06:42:21.437Z,11.92
2019-04-03T06:44:48.446Z,11.86
2019-04-03T06:47:15.000Z,12.01
2019-04-03T06:49:41.638Z,11.91
2019-04-03T06:52:08.378Z,12.01
2019-04-03T06:54:35.221Z,11.91
2019-04-03T06:57:02.088Z,11.76
2019-04-03T06:59:28.571Z,11.84
2019-04-03T07:01:55.303Z,12.30
2019-04-03T07:04:22.034Z,11.86
2019-04-03T07:06:48.877Z,11.96
2019-04-03T07:09:22.375Z,11.76
2019-04-03T07:11:43.519Z,11.76
2019-04-03T07:14:09.143Z,11.32
2019-04-03T07:16:38.080Z,11.10
2019-04-03T07:19:02.623Z,10.87
2019-04-03T07:21:29.358Z,10.50
2019-04-03T07:23:56.108Z,10.47
2019-04-03T07:26:22.845Z,10.55
2019-04-03T07:28:49.564Z,10.43
2019-04-03T07:31:16.477Z,10.39
2019-04-03T07:33:43.059Z,10.48
2019-04-03T07:36:11.582Z,10.54
2019-04-03T07:38:36.550Z,10.73
2019-04-03T07:41:04.007Z,10.83
2019-04-03T07:43:30.723Z,10.96
2019-04-03T07:45:57.458Z,11.20
2019-04-03T07:48:24.198Z,11.25
2019-04-03T07:50:50.950Z,11.11
2019-04-03T07:53:19.656Z,10.88
2019-04-03T07:55:44.438Z,11.14
2019-04-03T07:58:11.162Z,11.35
2019-04-03T08:00:38.504Z,11.54
2019-04-03T08:03:04.665Z,11.55
2019-04-03T08:05:31.689Z,11.70
2019-04-03T08:07:58.087Z,11.84
2019-04-03T08:10:24.810Z,11.74
2019-04-03T08:12:51.550Z,11.53
2019-04-03T08:15:18.283Z,11.86
2019-04-03T08:17:45.022Z,11.16
2019-04-03T08:20:11.753Z,10.57
2019-04-03T08:22:38.517Z,9.89
2019-04-03T08:25:05.650Z,9.48
2019-04-03T08:27:32.406Z,9.53
2019-04-03T08:29:59.130Z,9.56
2019-04-03T08:32:25.899Z,9.41
2019-04-03T08:34:52.621Z,9.24
2019-04-03T08:37:29.764Z,9.13
2019-04-03T08:39:48.543Z,9.04
2019-04-03T08:42:12.842Z,8.94
2019-04-03T08:44:39.814Z,8.87
2019-04-03T08:47:06.583Z,9.03
2019-04-03T08:49:33.054Z,8.88
2019-04-03T08:51:59.790Z,8.89
2019-04-03T08:54:26.529Z,8.99
2019-04-03T08:56:53.246Z,8.85
2019-04-03T08:59:19.995Z,8.75
2019-04-03T09:01:46.983Z,8.65
2019-04-03T09:04:14.853Z,8.75
2019-04-03T09:06:40.222Z,8.65
2019-04-03T09:09:08.699Z,8.77
2019-04-03T09:11:36.276Z,8.86
2019-04-03T09:14:02.165Z,8.76
2019-04-03T09:16:31.196Z,8.70
2019-04-03T09:18:55.713Z,8.53
2019-04-03T09:21:22.377Z,8.57
2019-04-03T09:23:49.118Z,8.58
2019-04-03T09:26:15.849Z,8.59
2019-04-03T09:28:42.895Z,8.47
2019-04-03T09:31:09.328Z,8.45
2019-04-03T09:33:36.085Z,8.32
2019-04-03T09:36:04.360Z,8.27
2019-04-03T09:38:29.718Z,8.16
2019-04-03T09:40:56.322Z,8.28
2019-04-03T09:43:23.247Z,8.14
2019-04-03T09:45:49.811Z,8.03
2019-04-03T09:48:16.620Z,8.23
2019-04-03T09:50:45.637Z,8.57
2019-04-03T09:53:10.310Z,8.76
2019-04-03T09:55:37.600Z,8.95
2019-04-03T09:58:04.294Z,9.12
2019-04-03T10:00:30.746Z,9.17
2019-04-03T10:02:57.513Z,9.25
2019-04-03T10:05:24.154Z,9.17
2019-04-03T10:07:50.738Z,9.30
2019-04-03T10:10:17.458Z,9.08
2019-04-03T10:12:47.614Z,9.33
2019-04-03T10:15:11.014Z,9.56
2019-04-03T10:17:38.564Z,9.77
2019-04-03T10:20:05.372Z,9.58
2019-04-03T10:22:31.846Z,9.86
2019-04-03T10:25:00.579Z,9.52
2019-04-03T10:27:25.759Z,9.82
2019-04-03T10:29:55.011Z,10.09
2019-04-03T10:32:18.800Z,10.30
2019-04-03T10:34:45.773Z,10.36
2019-04-03T10:37:14.425Z,10.09
2019-04-03T10:39:43.625Z,10.22
2019-04-03T10:42:05.844Z,10.48
2019-04-03T10:44:32.514Z,10.09
2019-04-03T10:46:59.242Z,10.17
2019-04-03T10:49:26.136Z,10.17
2019-04-03T10:51:52.941Z,10.37
2019-04-03T10:54:19.469Z,10.31
2019-04-03T10:56:46.324Z,10.50
2019-04-03T10:59:13.916Z,10.69
2019-04-03T11:01:40.039Z,10.72
2019-04-03T11:04:06.706Z,10.21
2019-04-03T11:06:35.286Z,10.30
2019-04-03T11:09:00.110Z,10.00
2019-04-03T11:11:28.728Z,9.96
2019-04-03T11:13:54.301Z,10.20
2019-04-03T11:16:20.661Z,10.06
2019-04-03T11:18:58.064Z,9.86
2019-04-03T11:21:14.882Z,9.79
2019-04-03T11:23:44.798Z,9.99
2019-04-03T11:26:08.477Z,10.02
2019-04-03T11:28:37.559Z,9.89
2019-04-03T11:31:02.598Z,9.87
2019-04-03T11:33:29.339Z,10.08
2019-04-03T11:35:56.405Z,9.71
2019-04-03T11:38:27.905Z,9.64
2019-04-03T11:40:50.831Z,9.44
2019-04-03T11:43:17.424Z,9.61
2019-04-03T11:45:44.076Z,9.75
2019-04-03T11:48:10.715Z,9.98
2019-04-03T11:50:39.407Z,10.14
2019-04-03T11:53:06.997Z,10.43
2019-04-03T11:55:31.038Z,10.44
2019-04-03T11:57:57.704Z,9.70
2019-04-03T12:00:28.799Z,9.69
2019-04-03T12:02:55.627Z,9.99
2019-04-03T12:05:22.247Z,9.67
2019-04-03T12:07:48.990Z,9.95
2019-04-03T12:10:15.749Z,10.33
2019-04-03T12:12:42.904Z,10.27
2019-04-03T12:15:09.705Z,10.17
2019-04-03T12:17:36.100Z,9.97
2019-04-03T12:20:03.586Z,9.74
2019-04-03T12:22:30.570Z,9.60
2019-04-03T12:24:57.484Z,9.67
2019-04-03T12:27:24.219Z,9.55
2019-04-03T12:29:53.870Z,9.39
2019-04-03T12:32:17.456Z,9.09
2019-04-03T12:34:44.222Z,9.11
2019-04-03T12:37:10.961Z,9.11
2019-04-03T12:39:37.774Z,9.37
2019-04-03T12:42:04.723Z,9.33
2019-04-03T12:44:31.250Z,9.29
2019-04-03T12:46:58.024Z,9.48
2019-04-03T12:49:24.746Z,9.41
2019-04-03T12:51:51.514Z,9.78
2019-04-03T12:54:20.627Z,10.09
2019-04-03T12:56:45.001Z,9.98
2019-04-03T12:59:11.742Z,9.86
2019-04-03T13:01:38.911Z,9.85
2019-04-03T13:04:05.219Z,10.02
2019-04-03T13:06:31.958Z,9.90
2019-04-03T13:08:58.754Z,10.17
2019-04-03T13:11:25.533Z,10.48
2019-04-03T13:13:52.545Z,10.50
2019-04-03T13:16:21.800Z,10.25
2019-04-03T13:18:45.691Z,10.22
2019-04-03T13:21:12.442Z,10.07
2019-04-03T13:23:39.174Z,9.87
2019-04-03T13:26:06.296Z,9.44
2019-04-03T13:28:33.470Z,9.55
2019-04-03T13:30:59.599Z,9.12
2019-04-03T13:33:26.118Z,9.06
2019-04-03T13:35:52.901Z,8.98
2019-04-03T13:38:19.668Z,8.77
2019-04-03T13:40:46.338Z,8.55
2019-04-03T13:43:13.117Z,8.73
2019-04-03T13:45:40.035Z,9.02
2019-04-03T13:48:06.611Z,9.07
2019-04-03T13:50:33.701Z,8.71
2019-04-03T13:53:00.380Z,8.67
2019-04-03T13:55:28.854Z,8.60
2019-04-03T13:57:53.612Z,8.53
2019-04-03T14:00:23.024Z,8.87
2019-04-03T14:02:47.243Z,8.89
2019-04-03T14:05:14.099Z,8.82
2019-04-03T14:07:41.875Z,8.79
2019-04-03T14:10:07.708Z,9.17
2019-04-03T14:12:36.534Z,8.71
2019-04-03T14:15:04.066Z,8.61
2019-04-03T14:17:28.230Z,8.46
2019-04-03T14:19:54.672Z,8.37
2019-04-03T14:22:21.551Z,8.12
2019-04-03T14:24:52.092Z,8.03
2019-04-03T14:27:21.958Z,8.01
2019-04-03T14:29:41.726Z,7.97
2019-04-03T14:32:08.306Z,8.18
2019-04-03T14:34:35.034Z,8.02
2019-04-03T14:37:01.841Z,8.05
2019-04-03T14:39:28.677Z,8.06
2019-04-03T14:41:55.534Z,7.95
2019-04-03T14:44:22.015Z,7.99
2019-04-03T14:46:50.743Z,7.95
2019-04-03T14:49:15.502Z,7.84
2019-04-03T14:51:43.539Z,7.82
2019-04-03T14:54:09.102Z,7.77
2019-04-03T14:56:36.016Z,7.73
2019-04-03T14:59:02.653Z,7.78
2019-04-03T15:01:29.258Z,7.86
2019-04-03T15:03:59.962Z,8.00
2019-04-03T15:06:23.706Z,8.14
2019-04-03T15:08:53.853Z,8.03
2019-04-03T15:11:17.283Z,8.08
2019-04-03T15:13:44.595Z,8.10
2019-04-03T15:16:10.969Z,7.99
2019-04-03T15:18:37.584Z,7.99
2019-04-03T15:21:04.361Z,8.19
2019-04-03T15:23:31.107Z,8.22
2019-04-03T15:25:57.850Z,8.46
2019-04-03T15:28:24.608Z,8.69
2019-04-03T15:30:51.528Z,8.38
2019-04-03T15:33:18.378Z,8.25
2019-04-03T15:35:44.823Z,8.07
2019-04-03T15:38:13.454Z,8.25
2019-04-03T15:40:38.485Z,8.21
2019-04-03T15:43:05.105Z,8.19
2019-04-03T15:45:32.077Z,8.83
2019-04-03T15:47:59.121Z,8.62
2019-04-03T15:50:27.427Z,8.77
2019-04-03T15:52:52.285Z,8.68
2019-04-03T15:55:18.846Z,8.55
2019-04-03T15:57:45.604Z,8.26
2019-04-03T16:00:12.574Z,8.25
2019-04-03T16:02:39.241Z,8.09
2019-04-03T16:05:06.291Z,8.09
2019-04-03T16:07:33.539Z,7.53
2019-04-03T16:09:59.403Z,7.27
2019-04-03T16:12:26.234Z,7.17
2019-04-03T16:14:53.118Z,6.92
2019-04-03T16:17:20.025Z,6.89
2019-04-03T16:19:46.481Z,7.08
2019-04-03T16:22:13.644Z,7.40
2019-04-03T16:24:43.114Z,7.37
2019-04-03T16:27:07.968Z,7.38
2019-04-03T16:29:33.602Z,7.50
2019-04-03T16:32:00.189Z,7.34
2019-04-03T16:34:26.982Z,7.71
2019-04-03T16:36:53.719Z,7.58
2019-04-03T16:39:20.481Z,7.39
2019-04-03T16:41:47.350Z,7.35
2019-04-03T16:44:14.027Z,7.26
2019-04-03T16:46:41.683Z,7.29
2019-04-03T16:49:07.828Z,7.19
2019-04-03T16:51:34.378Z,7.37
2019-04-03T16:54:01.202Z,7.45
2019-04-03T16:56:27.942Z,7.35
2019-04-03T16:58:54.706Z,7.35
2019-04-03T17:01:21.439Z,7.30
2019-04-03T17:03:48.194Z,7.25
2019-04-03T17:06:15.864Z,7.28
2019-04-03T17:08:42.307Z,7.60
2019-04-03T17:11:11.295Z,7.33
2019-04-03T17:13:35.351Z,7.46
2019-04-03T17:16:02.450Z,7.42
2019-04-03T17:18:29.063Z,7.36
2019-04-03T17:20:56.960Z,7.29
2019-04-03T17:23:23.250Z,7.37
2019-04-03T17:25:51.608Z,7.37
2019-04-03T17:28:16.434Z,7.32
2019-04-03T17:30:43.257Z,7.24
2019-04-03T17:33:10.655Z,7.49
2019-04-03T17:35:36.933Z,7.53
2019-04-03T17:38:03.839Z,7.34
2019-04-03T17:40:30.703Z,7.25
2019-04-03T17:42:57.468Z,7.29
2019-04-03T17:45:24.279Z,7.14
2019-04-03T17:47:53.889Z,7.18
2019-04-03T17:50:17.968Z,7.45
2019-04-03T17:52:44.742Z,7.61
2019-04-03T17:55:11.547Z,7.45
2019-04-03T17:57:38.433Z,7.23
2019-04-03T18:00:07.768Z,7.21
2019-04-03T18:02:34.970Z,7.34
2019-04-03T18:05:01.783Z,7.48
2019-04-03T18:07:29.017Z,7.46
2019-04-03T18:09:55.488Z,7.43
2019-04-03T18:12:22.322Z,7.57
2019-04-03T18:14:50.086Z,7.66
2019-04-03T18:17:19.216Z,7.61
2019-04-03T18:19:43.787Z,7.34
2019-04-03T18:22:10.643Z,7.44
2019-04-03T18:24:37.431Z,7.58
2019-04-03T18:27:06.571Z,7.52
2019-04-03T18:29:32.060Z,7.57
2019-04-03T18:31:58.894Z,7.60
2019-04-03T18:34:25.752Z,7.62
2019-04-03T18:36:52.591Z,7.40
2019-04-03T18:39:19.441Z,7.30
2019-04-03T18:41:47.834Z,7.44
2019-04-03T18:46:39.865Z,7.46
2019-04-03T18:47:15.961Z,7.47
2019-04-03T18:49:06.617Z,7.34
2019-04-03T18:51:36.425Z,7.34
2019-04-03T18:54:00.223Z,7.83
2019-04-03T18:56:27.042Z,8.10
2019-04-03T18:58:55.106Z,7.65
2019-04-03T19:01:20.705Z,8.07
2019-04-03T19:03:47.585Z,7.56
2019-04-03T19:06:14.393Z,7.50
2019-04-03T19:08:41.291Z,7.88
2019-04-03T19:11:09.682Z,7.44
2019-04-03T19:13:34.849Z,7.31
2019-04-03T19:16:02.384Z,7.39
2019-04-03T19:18:28.518Z,7.48
2019-04-03T19:20:55.330Z,7.57
2019-04-03T19:23:22.206Z,7.44
2019-04-03T19:25:49.030Z,7.57
2019-04-03T19:28:15.891Z,7.67
2019-04-03T19:30:42.710Z,7.51
2019-04-03T19:33:09.583Z,7.30
2019-04-03T19:35:36.415Z,7.05
2019-04-03T19:38:04.944Z,7.34
2019-04-03T19:40:30.118Z,7.48
2019-04-03T19:42:56.943Z,7.20
2019-04-03T19:45:23.696Z,7.15
2019-04-03T19:47:50.598Z,7.55
2019-04-03T19:50:17.447Z,7.20
2019-04-03T19:52:44.190Z,7.29
2019-04-03T19:55:11.038Z,7.17
2019-04-03T19:57:37.862Z,7.11
2019-04-03T20:00:04.824Z,7.04
2019-04-03T20:02:31.741Z,7.12
2019-04-03T20:04:58.519Z,7.27
2019-04-03T20:07:26.767Z,7.17
2019-04-03T20:09:52.146Z,7.09
2019-04-03T20:12:18.982Z,7.63
2019-04-03T20:14:57.529Z,7.27
2019-04-03T20:17:12.598Z,7.27
2019-04-03T20:19:39.466Z,7.38
2019-04-03T20:22:07.021Z,7.27
2019-04-03T20:24:33.158Z,7.21
2019-04-03T20:27:00.704Z,7.14
2019-04-03T20:29:30.328Z,7.28
2019-04-03T20:31:54.222Z,7.28
2019-04-03T20:34:20.973Z,7.24
2019-04-03T20:36:50.660Z,7.74
2019-04-03T20:39:14.510Z,7.32
2019-04-03T20:41:41.247Z,7.35
2019-04-03T20:44:07.991Z,7.18
2019-04-03T20:46:34.753Z,7.13
2019-04-03T20:49:03.061Z,7.12
2019-04-03T20:51:28.240Z,7.23
2019-04-03T20:53:54.983Z,6.87
2019-04-03T20:56:21.734Z,6.85
2019-04-03T20:58:55.694Z,7.12
2019-04-03T21:01:15.195Z,6.71
2019-04-03T21:03:43.738Z,6.66
2019-04-03T21:06:08.850Z,6.75
2019-04-03T21:08:35.612Z,6.62
2019-04-03T21:11:02.822Z,6.76
2019-04-03T21:13:29.070Z,6.35
2019-04-03T21:15:56.835Z,6.47
2019-04-03T21:18:23.619Z,6.46
2019-04-03T21:20:50.430Z,6.27
2019-04-03T21:23:17.186Z,5.94
2019-04-03T21:25:43.923Z,6.19
2019-04-03T21:28:10.967Z,6.08
2019-04-03T21:30:37.398Z,5.98
2019-04-03T21:33:04.139Z,5.91
2019-04-03T21:35:30.934Z,6.02
2019-04-03T21:37:57.677Z,5.84
2019-04-03T21:40:24.455Z,5.86
2019-04-03T21:42:51.186Z,5.91
2019-04-03T21:45:17.934Z,6.05
2019-04-03T21:47:44.654Z,6.38
2019-04-03T21:50:11.419Z,6.44
2019-04-03T21:52:38.174Z,6.12
2019-04-03T21:55:05.782Z,5.99
2019-04-03T21:57:32.503Z,5.86
2019-04-03T21:59:59.277Z,5.98
2019-04-03T22:02:26.006Z,5.92
2019-04-03T22:04:53.848Z,5.81
2019-04-03T22:07:19.626Z,5.80
2019-04-03T22:09:46.380Z,6.11
2019-04-03T22:12:13.129Z,6.31
2019-04-03T22:14:42.599Z,6.45
2019-04-03T22:17:06.618Z,6.47
2019-04-03T22:19:33.389Z,6.89
2019-04-03T22:22:01.072Z,6.85
2019-04-03T22:24:26.834Z,6.72
2019-04-03T22:26:53.578Z,6.60
2019-04-03T22:29:20.599Z,6.59
2019-04-03T22:31:47.062Z,6.63
2019-04-03T22:34:13.790Z,6.58
2019-04-03T22:36:40.530Z,6.75
2019-04-03T22:39:08.111Z,6.50
2019-04-03T22:41:34.011Z,6.35
2019-04-03T22:44:00.786Z,6.57
2019-04-03T22:46:28.072Z,6.43
2019-04-03T22:48:54.826Z,6.20
2019-04-03T22:51:21.653Z,6.54
2019-04-03T22:53:48.319Z,6.40
2019-04-03T22:56:16.923Z,6.45
2019-04-03T22:58:41.790Z,6.35
2019-04-03T23:01:08.550Z,6.41
2019-04-03T23:03:35.289Z,6.05
2019-04-03T23:06:02.053Z,6.08
2019-04-03T23:08:28.799Z,5.81
2019-04-03T23:10:55.597Z,5.92
2019-04-03T23:13:22.379Z,6.03
2019-04-03T23:15:49.149Z,5.78
2019-04-03T23:18:16.477Z,5.79
2019-04-03T23:20:43.688Z,5.84
2019-04-03T23:23:10.526Z,6.03
2019-04-03T23:25:37.297Z,6.07
2019-04-03T23:28:04.100Z,6.37
2019-04-03T23:30:30.887Z,6.16
2019-04-03T23:32:57.678Z,6.57
2019-04-03T23:35:24.447Z,6.19
2019-04-03T23:37:51.258Z,6.15
2019-04-03T23:40:18.043Z,6.21
2019-04-03T23:42:44.857Z,6.23
2019-04-03T23:45:12.857Z,6.29
2019-04-03T23:47:38.426Z,6.51
2019-04-03T23:50:05.194Z,6.24
2019-04-03T23:52:31.987Z,6.11
2019-04-03T23:54:58.750Z,6.10
2019-04-03T23:57:25.533Z,6.22
2019-04-03T23:59:52.298Z,6.12
